1969 NOT_NAMED (1969027S11113)


IBTrACS version v04r00. Visit IBTrACS website for data access.
Please direct all questions to the IBTrACS Q and A forum

Storm track - Intensity - Wind Radii - Intensity Data - Source Data - All data

Summary Information

Storm ID 1969027S11113
Start Jan 26 23Z
End Jan 30 23Z
ATCF IDs ,SH161969
Track status Best track data.

Storm track plot

Map of storm track

Intensity plots

No Intensity information for this storm


Radial wind information

No radial wind information for this storm


Position and Intensity Table

BASIN ISO_TIME_________ NATURE LAT LON
degrees north degrees east
SI 1969-01-26 23:00:00 NR -11.00 113.10
SI 1969-01-27 00:00:00 TS -11.02 113.08
SI 03:00:00 TS -11.16 112.93
SI 06:00:00 TS -11.29 112.80
SI 09:00:00 TS -11.40 112.69
SI 11:00:00 TS -11.48 112.62
SI 12:00:00 TS -11.52 112.59
SI 15:00:00 TS -11.66 112.44
SI 18:00:00 TS -11.81 112.31
SI 21:00:00 TS -11.92 112.24
SI 23:00:00 TS -11.98 112.21
SI 1969-01-28 00:00:00 TS -12.01 112.19
SI 03:00:00 TS -12.06 112.14
SI 06:00:00 TS -12.09 112.11
SI 09:00:00 TS -12.10 112.10
SI 11:00:00 TS -12.10 112.10
SI 12:00:00 TS -12.10 112.10
SI 15:00:00 TS -12.13 112.08
SI 18:00:00 TS -12.16 112.05
SI 21:00:00 TS -12.16 112.06
SI 23:00:00 TS -12.18 112.02
SI 1969-01-29 00:00:00 TS -12.22 111.97
SI 03:00:00 TS -12.43 111.69
SI 06:00:00 TS -12.71 111.27
SI 09:00:00 TS -13.01 110.76
SI 11:00:00 TS -13.21 110.39
SI 12:00:00 TS -13.29 110.21
SI 15:00:00 TS -13.49 109.71
SI 18:00:00 TS -13.67 109.20
SI 21:00:00 TS -13.86 108.66
SI 23:00:00 TS -14.01 108.29
SI 1969-01-30 00:00:00 TS -14.11 108.11
SI 03:00:00 TS -14.49 107.57
SI 06:00:00 TS -14.92 107.03
SI 09:00:00 TS -15.35 106.48
SI 11:00:00 TS -15.60 106.10
SI 12:00:00 TS -15.70 105.89
SI 15:00:00 TS -15.90 105.21
SI 18:00:00 TS -16.01 104.48
SI 21:00:00 NR -16.07 103.71
SI 23:00:00 NR -16.10 103.20

Source Information

Agency Information
USA bsh161969.txt
TOKYO
CMA
HKO
NEWDELHI
REUNION
BOM
NADI
WELLINGTON
DS824 s_hem.dat:1085:16S
TD9636 cons_worldwide_trop_cyclone_18710101-19891231-006:Line=8114
TD9635
NEUMANN
MLC

All available IBTrACS Data

SEASON BASIN SUBBASIN ISO_TIME_________ NATURE LAT LON DIST2LAND LANDFALL IFLAG USA AGENCY USA ATCF_ID USA LAT USA LON USA SSHS DS824 LAT DS824 LON DS824 STAGE TD9636 LAT TD9636 LON TD9636 STAGE STORM SPEED STORM DIR
Year degrees north degrees east km km degrees north degrees east 1 degrees north degrees east degrees north degrees east kts degrees
1969 SI WA 1969-01-26 23:00:00 NR -11.00 113.10 279 279 __________O___ -1 -11.00 113.10 7 2 0
1969 SI WA 1969-01-27 00:00:00 TS -11.02 113.08 279 279 O________OP___ jtwc_sh SH161969 -11.00 113.10 -1 -11.00 113.10 TC -11.04 113.06 7 3 226
1969 SI WA 03:00:00 TS -11.16 112.93 307 307 P________PP___ SH161969 -11.16 112.94 -1 -11.16 112.94 TC -11.16 112.93 7 4 225
1969 SI WA 06:00:00 TS -11.29 112.80 321 321 O________OP___ jtwc_sh SH161969 -11.30 112.80 -1 -11.30 112.80 TC -11.28 112.81 7 3 225
1969 SI WA 09:00:00 TS -11.40 112.69 336 336 P________PP___ SH161969 -11.40 112.70 -1 -11.40 112.70 TC -11.41 112.68 7 3 223
1969 SI WA 11:00:00 TS -11.48 112.62 347 347 P________PO___ SH161969 -11.46 112.64 -1 -11.46 112.64 TC -11.50 112.60 7 3 223
1969 SI WA 12:00:00 TS -11.52 112.59 347 347 O________OP___ jtwc_sh SH161969 -11.50 112.60 -1 -11.50 112.60 TC -11.55 112.56 7 4 223
1969 SI WA 15:00:00 TS -11.66 112.44 371 371 P________PP___ SH161969 -11.65 112.44 -1 -11.65 112.44 TC -11.69 112.44 7 4 223
1969 SI WA 18:00:00 TS -11.81 112.31 383 383 O________OP___ jtwc_sh SH161969 -11.80 112.30 -1 -11.80 112.30 TC -11.82 112.34 7 3 217
1969 SI WA 21:00:00 TS -11.92 112.24 395 395 P________PP___ SH161969 -11.91 112.23 -1 -11.91 112.23 TC -11.94 112.25 7 2 211
1969 SI WA 23:00:00 TS -11.98 112.21 406 406 P________PO___ SH161969 -11.97 112.21 -1 -11.97 112.21 TC -12.00 112.20 7 2 210
1969 SI WA 1969-01-28 00:00:00 TS -12.01 112.19 406 406 O________OP___ jtwc_sh SH161969 -12.00 112.20 -1 -12.00 112.20 TC -12.02 112.18 7 2 219
1969 SI WA 03:00:00 TS -12.06 112.14 416 416 P________PP___ SH161969 -12.07 112.14 -1 -12.07 112.14 TC -12.06 112.14 7 1 226
1969 SI WA 06:00:00 TS -12.09 112.11 416 416 O________OP___ jtwc_sh SH161969 -12.10 112.10 -1 -12.10 112.10 TC -12.08 112.12 7 1 234
1969 SI WA 09:00:00 TS -12.10 112.10 416 416 P________PP___ SH161969 -12.10 112.10 -1 -12.10 112.10 TC -12.09 112.11 7 0 0
1969 SI WA 11:00:00 TS -12.10 112.10 416 416 P________PO___ SH161969 -12.10 112.10 -1 -12.10 112.10 TC -12.10 112.10 7 0 0
1969 SI WA 12:00:00 TS -12.10 112.10 416 416 O________OP___ jtwc_sh SH161969 -12.10 112.10 -1 -12.10 112.10 TC -12.10 112.11 7 1 220
1969 SI WA 15:00:00 TS -12.13 112.08 416 416 P________PP___ SH161969 -12.15 112.05 -1 -12.15 112.05 TC -12.08 112.15 7 1 225
1969 SI WA 18:00:00 TS -12.16 112.05 427 427 O________OP___ jtwc_sh SH161969 -12.20 112.00 -1 -12.20 112.00 TC -12.09 112.16 7 0 223
1969 SI WA 21:00:00 TS -12.16 112.06 427 426 P________PP___ SH161969 -12.17 112.04 -1 -12.17 112.04 TC -12.13 112.10 7 0 239
1969 SI WA 23:00:00 TS -12.18 112.02 426 426 P________PO___ SH161969 -12.17 112.04 -1 -12.17 112.04 TC -12.20 112.00 7 2 234
1969 SI WA 1969-01-29 00:00:00 TS -12.22 111.97 426 426 O________OP___ jtwc_sh SH161969 -12.20 112.00 -1 -12.20 112.00 TC -12.26 111.92 7 6 233
1969 SI WA 03:00:00 TS -12.43 111.69 448 448 P________PP___ SH161969 -12.40 111.73 -1 -12.40 111.73 TC -12.47 111.61 7 9 234
1969 SI WA 06:00:00 TS -12.71 111.27 483 483 O________OP___ jtwc_sh SH161969 -12.70 111.30 -1 -12.70 111.30 TC -12.74 111.21 7 11 237
1969 SI WA 09:00:00 TS -13.01 110.76 524 524 P________PP___ SH161969 -13.01 110.77 -1 -13.01 110.77 TC -13.02 110.73 7 12 240
1969 SI WA 11:00:00 TS -13.21 110.39 555 555 P________PO___ SH161969 -13.21 110.39 -1 -13.21 110.39 TC -13.20 110.40 7 12 243
1969 SI WA 12:00:00 TS -13.29 110.21 570 570 O________OP___ jtwc_sh SH161969 -13.30 110.20 -1 -13.30 110.20 TC -13.26 110.24 7 11 247
1969 SI WA 15:00:00 TS -13.49 109.71 603 603 P________PP___ SH161969 -13.51 109.70 -1 -13.51 109.70 TC -13.44 109.74 7 11 249
1969 SI WA 18:00:00 TS -13.67 109.20 637 637 O________OP___ jtwc_sh SH161969 -13.70 109.20 -1 -13.70 109.20 TC -13.62 109.21 7 11 250
1969 SI WA 21:00:00 TS -13.86 108.66 674 674 P________PP___ SH161969 -13.87 108.66 -1 -13.87 108.66 TC -13.83 108.67 7 11 249
1969 SI WA 23:00:00 TS -14.01 108.29 694 694 P________PO___ SH161969 -14.01 108.29 -1 -14.01 108.29 TC -14.00 108.30 7 12 245
1969 SI WA 1969-01-30 00:00:00 TS -14.11 108.11 706 706 O________OP___ jtwc_sh SH161969 -14.10 108.10 -1 -14.10 108.10 TC -14.12 108.13 7 13 235
1969 SI WA 03:00:00 TS -14.49 107.57 755 755 P________PP___ SH161969 -14.47 107.55 -1 -14.47 107.55 TC -14.53 107.61 7 13 232
1969 SI WA 06:00:00 TS -14.92 107.03 809 809 O________OP___ jtwc_sh SH161969 -14.90 107.00 -1 -14.90 107.00 TC -14.97 107.08 7 14 231
1969 SI WA 09:00:00 TS -15.35 106.48 862 862 P________PP___ SH161969 -15.34 106.47 -1 -15.34 106.47 TC -15.37 106.51 7 13 233
1969 SI WA 11:00:00 TS -15.60 106.10 903 903 P________PO___ SH161969 -15.60 106.10 -1 -15.60 106.10 TC -15.60 106.10 7 13 239
1969 SI WA 12:00:00 TS -15.70 105.89 919 919 O________OP___ jtwc_sh SH161969 -15.70 105.90 -1 -15.70 105.90 TC -15.69 105.88 7 14 250
1969 SI WA 15:00:00 TS -15.90 105.21 960 960 P________PP___ SH161969 -15.90 105.23 -1 -15.90 105.23 TC -15.90 105.20 7 14 257
1969 SI WA 18:00:00 TS -16.01 104.48 985 985 O________OP___ jtwc_sh SH161969 -16.00 104.50 -1 -16.00 104.50 TC -16.01 104.47 7 15 263
1969 SI WA 21:00:00 NR -16.07 103.71 1017 1017 __________P___ SH161969 -1 TC -16.07 103.71 7 15 266
1969 SI WA 23:00:00 NR -16.10 103.20 1034 __________O___ SH161969 -1 TC -16.10 103.20 7 15 267